createdAt,value
2023-02-01T00:00:23.663Z,6.90
2023-02-01T00:02:50.245Z,10.10
2023-02-01T00:05:16.751Z,6.37
2023-02-01T00:07:43.192Z,8.33
2023-02-01T00:10:10.006Z,7.90
2023-02-01T00:12:36.526Z,6.07
2023-02-01T00:15:03.167Z,7.03
2023-02-01T00:17:29.588Z,10.57
2023-02-01T00:19:55.998Z,9.00
2023-02-01T00:22:22.507Z,7.47
2023-02-01T00:24:48.976Z,8.57
2023-02-01T00:27:18.609Z,6.97
2023-02-01T00:29:45.942Z,7.40
2023-02-01T00:32:12.913Z,9.03
2023-02-01T00:34:39.443Z,7.23
2023-02-01T00:37:05.865Z,5.60
2023-02-01T00:39:32.367Z,6.60
2023-02-01T00:42:00.959Z,10.40
2023-02-01T00:44:27.986Z,8.73
2023-02-01T00:46:54.715Z,7.47
2023-02-01T00:49:21.346Z,9.13
2023-02-01T00:51:48.413Z,8.93
2023-02-01T00:54:14.917Z,7.57
2023-02-01T00:56:41.395Z,8.77
2023-02-01T00:59:11.628Z,8.07
2023-02-01T01:01:38.198Z,7.00
2023-02-01T01:04:04.853Z,6.97
2023-02-01T01:06:33.725Z,6.60
2023-02-01T01:09:02.254Z,6.90
2023-02-01T01:11:30.997Z,7.53
2023-02-01T01:13:59.429Z,7.60
2023-02-01T01:16:28.669Z,7.20
2023-02-01T01:18:56.446Z,7.37
2023-02-01T01:21:22.983Z,7.67
2023-02-01T01:23:50.094Z,8.00
2023-02-01T01:26:19.908Z,7.60
2023-02-01T01:28:46.965Z,7.43
2023-02-01T01:31:15.218Z,7.03
2023-02-01T01:33:41.714Z,7.40
2023-02-01T01:36:12.062Z,8.27
2023-02-01T01:38:39.558Z,6.63
2023-02-01T01:41:06.271Z,6.90
2023-02-01T01:43:52.407Z,7.33
2023-02-01T01:46:22.245Z,6.40
2023-02-01T01:48:54.699Z,7.67
2023-02-01T01:51:24.172Z,5.67
2023-02-01T01:54:06.316Z,7.20
2023-02-01T01:56:35.086Z,7.80
2023-02-01T01:59:03.198Z,6.73
2023-02-01T02:01:30.007Z,7.13
2023-02-01T02:03:57.495Z,8.63
2023-02-01T02:06:56.451Z,7.37
2023-02-01T02:09:22.980Z,8.13
2023-02-01T02:11:49.587Z,8.67
2023-02-01T02:14:19.067Z,10.63
2023-02-01T02:16:57.239Z,8.67
2023-02-01T02:19:41.993Z,10.53
2023-02-01T02:22:40.016Z,9.40
2023-02-01T02:25:38.145Z,9.60
2023-02-01T02:28:38.429Z,8.57
2023-02-01T02:31:23.885Z,7.93
2023-02-01T02:34:03.873Z,7.60
2023-02-01T02:36:40.697Z,6.83
2023-02-01T02:39:38.143Z,8.07
2023-02-01T02:42:35.583Z,9.93
2023-02-01T02:45:41.462Z,7.10
2023-02-01T02:48:17.135Z,8.93
2023-02-01T02:51:10.368Z,8.53
2023-02-01T02:54:05.100Z,9.37
2023-02-01T02:56:51.017Z,7.30
2023-02-01T02:59:41.173Z,9.67
2023-02-01T03:02:27.447Z,6.70
2023-02-01T03:04:58.715Z,7.23
2023-02-01T03:07:45.174Z,19.53
2023-02-01T03:10:38.851Z,9.07
2023-02-01T03:13:13.759Z,10.70
2023-02-01T03:15:49.417Z,9.07
2023-02-01T03:18:32.010Z,8.30
2023-02-01T03:21:01.373Z,11.33
2023-02-01T03:23:34.732Z,13.27
2023-02-01T03:26:02.862Z,6.13
2023-02-01T03:28:33.765Z,9.33
2023-02-01T03:31:01.873Z,9.37
2023-02-01T03:33:31.119Z,6.97
2023-02-01T03:36:13.245Z,6.80
2023-02-01T03:38:59.702Z,6.50
2023-02-01T03:41:35.883Z,8.80
2023-02-01T03:44:25.953Z,8.53
2023-02-01T03:47:00.534Z,8.40
2023-02-01T03:49:38.815Z,8.53
2023-02-01T03:52:09.236Z,7.87
2023-02-01T03:54:37.595Z,7.73
2023-02-01T03:57:10.794Z,6.90
2023-02-01T03:59:42.271Z,7.07
2023-02-01T04:02:09.559Z,8.53
2023-02-01T04:04:36.681Z,7.77
2023-02-01T04:07:04.746Z,5.67
2023-02-01T04:09:31.314Z,6.60
2023-02-01T04:11:57.785Z,9.43
2023-02-01T04:14:24.276Z,6.57
2023-02-01T04:16:50.974Z,7.37
2023-02-01T04:19:17.449Z,7.77
2023-02-01T04:21:43.970Z,8.67
2023-02-01T04:24:11.536Z,9.90
2023-02-01T04:26:38.562Z,8.13
2023-02-01T04:29:05.191Z,9.17
2023-02-01T04:31:31.761Z,7.07
2023-02-01T04:33:58.555Z,8.97
2023-02-01T04:36:25.464Z,6.47
2023-02-01T04:38:52.290Z,5.90
2023-02-01T04:41:19.762Z,7.07
2023-02-01T04:43:51.093Z,8.23
2023-02-01T04:46:17.708Z,9.27
2023-02-01T04:48:44.222Z,5.73
2023-02-01T04:51:11.360Z,7.87
2023-02-01T04:53:37.799Z,10.67
2023-02-01T04:56:04.609Z,8.60
2023-02-01T04:58:31.145Z,7.97
2023-02-01T05:00:57.650Z,10.57
2023-02-01T05:03:24.163Z,7.83
2023-02-01T05:05:50.944Z,7.43
2023-02-01T05:08:17.405Z,9.47
2023-02-01T05:10:46.032Z,7.63
2023-02-01T05:13:31.228Z,10.57
2023-02-01T05:15:57.758Z,8.90
2023-02-01T05:18:24.447Z,7.87
2023-02-01T05:20:50.860Z,9.73
2023-02-01T05:23:17.331Z,7.37
2023-02-01T05:25:43.851Z,7.37
2023-02-01T05:28:10.382Z,8.43
2023-02-01T05:30:37.196Z,6.60
2023-02-01T05:33:04.473Z,7.47
2023-02-01T05:35:31.156Z,9.93
2023-02-01T05:37:57.649Z,5.40
2023-02-01T05:40:24.570Z,6.60
2023-02-01T05:42:51.181Z,9.13
2023-02-01T05:45:17.821Z,6.23
2023-02-01T05:47:44.257Z,8.77
2023-02-01T05:50:10.978Z,8.57
2023-02-01T05:52:37.430Z,11.83
2023-02-01T05:55:04.719Z,12.30
2023-02-01T05:57:31.408Z,10.40
2023-02-01T05:59:59.453Z,12.57
2023-02-01T06:02:26.971Z,10.37
2023-02-01T06:04:53.412Z,6.93
2023-02-01T06:07:19.976Z,9.23
2023-02-01T06:09:46.404Z,7.93
2023-02-01T06:12:13.260Z,6.67
2023-02-01T06:14:39.692Z,9.13
2023-02-01T06:17:07.226Z,6.83
2023-02-01T06:19:33.641Z,9.50
2023-02-01T06:22:00.114Z,9.00
2023-02-01T06:24:26.695Z,7.13
2023-02-01T06:26:53.223Z,10.90
2023-02-01T06:29:19.651Z,6.73
2023-02-01T06:31:46.119Z,10.10
2023-02-01T06:34:12.641Z,6.77
2023-02-01T06:36:39.438Z,11.73
2023-02-01T06:39:05.876Z,10.77
2023-02-01T06:41:32.325Z,9.40
2023-02-01T06:43:58.806Z,7.60
2023-02-01T06:46:25.284Z,10.40
2023-02-01T06:48:52.018Z,15.07
2023-02-01T06:51:24.042Z,10.33
2023-02-01T06:53:50.795Z,12.83
2023-02-01T06:56:17.347Z,8.77
2023-02-01T06:58:43.839Z,7.47
2023-02-01T07:01:11.626Z,9.17
2023-02-01T07:03:38.884Z,8.23
2023-02-01T07:06:06.029Z,14.83
2023-02-01T07:08:34.535Z,11.20
2023-02-01T07:11:10.170Z,13.87
2023-02-01T07:13:37.517Z,10.00
2023-02-01T07:16:06.806Z,9.17
2023-02-01T07:18:33.659Z,12.07
2023-02-01T07:21:00.439Z,10.83
2023-02-01T07:23:27.843Z,8.67
2023-02-01T07:25:59.301Z,7.67
2023-02-01T07:28:26.309Z,5.57
2023-02-01T07:30:53.187Z,8.70
2023-02-01T07:33:22.211Z,4.23
2023-02-01T07:35:49.995Z,6.73
2023-02-01T07:38:17.714Z,8.33
2023-02-01T07:40:44.458Z,12.13
2023-02-01T07:43:10.966Z,8.97
2023-02-01T07:45:37.974Z,10.03
2023-02-01T07:48:04.907Z,13.03
2023-02-01T07:50:31.780Z,12.30
2023-02-01T07:53:02.015Z,12.30
2023-02-01T07:55:28.993Z,11.70
2023-02-01T07:57:58.382Z,11.93
2023-02-01T08:00:43.633Z,11.50
2023-02-01T08:03:10.088Z,10.87
2023-02-01T08:05:37.821Z,13.97
2023-02-01T08:08:05.231Z,14.70
2023-02-01T08:10:32.006Z,14.10
2023-02-01T08:13:00.748Z,13.77
2023-02-01T08:15:28.489Z,17.87
2023-02-01T08:17:55.620Z,15.63
2023-02-01T08:20:27.033Z,12.13
2023-02-01T08:22:54.768Z,19.97
2023-02-01T08:25:21.932Z,16.73
2023-02-01T08:27:48.627Z,13.47
2023-02-01T08:30:15.442Z,19.37
2023-02-01T08:32:41.974Z,16.00
2023-02-01T08:35:09.944Z,13.07
2023-02-01T08:37:36.430Z,15.30
2023-02-01T08:40:04.463Z,12.57
2023-02-01T08:42:49.740Z,17.13
2023-02-01T08:45:16.316Z,16.87
2023-02-01T08:47:43.019Z,11.50
2023-02-01T08:50:10.363Z,12.63
2023-02-01T08:52:38.297Z,12.60
2023-02-01T08:55:06.605Z,14.53
2023-02-01T08:57:34.331Z,13.80
2023-02-01T09:00:01.197Z,11.87
2023-02-01T09:02:28.112Z,10.83
2023-02-01T09:04:55.712Z,14.07
2023-02-01T09:07:22.174Z,11.20
2023-02-01T09:09:48.654Z,10.73
2023-02-01T09:12:15.348Z,11.60
2023-02-01T09:14:41.828Z,11.73
2023-02-01T09:17:08.371Z,15.77
2023-02-01T09:19:34.834Z,12.20
2023-02-01T09:22:01.313Z,12.83
2023-02-01T09:24:29.005Z,8.93
2023-02-01T09:26:55.561Z,13.23
2023-02-01T09:29:22.046Z,9.87
2023-02-01T09:32:01.540Z,12.07
2023-02-01T09:34:30.561Z,14.30
2023-02-01T09:36:57.225Z,13.87
2023-02-01T09:39:23.736Z,12.20
2023-02-01T09:42:15.734Z,12.20
2023-02-01T09:45:11.052Z,16.70
2023-02-01T09:47:55.872Z,14.97
2023-02-01T09:50:38.234Z,13.90
2023-02-01T09:53:13.932Z,13.87
2023-02-01T09:55:49.371Z,10.13
2023-02-01T09:58:24.054Z,13.30
2023-02-01T10:00:58.799Z,15.47
2023-02-01T10:03:30.282Z,14.67
2023-02-01T10:06:09.176Z,13.13
2023-02-01T10:09:01.974Z,15.87
2023-02-01T10:11:51.630Z,13.60
2023-02-01T10:14:57.959Z,13.50
2023-02-01T10:17:27.387Z,11.20
2023-02-01T10:20:03.274Z,13.33
2023-02-01T10:23:10.365Z,13.23
2023-02-01T10:25:37.702Z,12.43
2023-02-01T10:28:05.362Z,17.50
2023-02-01T10:30:43.926Z,14.77
2023-02-01T10:33:24.830Z,8.90
2023-02-01T10:35:57.398Z,18.90
2023-02-01T10:38:28.549Z,11.43
2023-02-01T10:41:02.349Z,14.07
2023-02-01T10:43:29.454Z,18.17
2023-02-01T10:45:56.043Z,20.03
2023-02-01T10:48:23.301Z,20.37
2023-02-01T10:51:01.422Z,18.10
2023-02-01T10:54:14.568Z,21.30
2023-02-01T10:56:46.352Z,13.80
2023-02-01T10:59:24.908Z,14.20
2023-02-01T11:02:00.858Z,17.97
2023-02-01T11:04:29.969Z,17.33
2023-02-01T11:07:09.172Z,13.57
2023-02-01T11:09:41.008Z,14.10
2023-02-01T11:12:29.151Z,14.03
2023-02-01T11:15:02.947Z,15.50
2023-02-01T11:17:35.322Z,18.90
2023-02-01T11:20:06.841Z,15.43
2023-02-01T11:22:33.335Z,12.83
2023-02-01T11:25:03.061Z,11.07
2023-02-01T11:27:29.740Z,11.40
2023-02-01T11:30:01.240Z,9.97
2023-02-01T11:32:29.221Z,9.37
2023-02-01T11:35:02.909Z,12.23
2023-02-01T11:37:38.397Z,16.57
2023-02-01T11:40:23.399Z,12.27
2023-02-01T11:43:29.669Z,10.37
2023-02-01T11:46:01.288Z,16.97
2023-02-01T11:48:31.089Z,11.50
2023-02-01T11:51:32.430Z,11.77
2023-02-01T11:54:51.669Z,13.93
2023-02-01T11:57:40.109Z,11.93
2023-02-01T12:00:28.346Z,10.43
2023-02-01T12:02:57.911Z,14.70
2023-02-01T12:05:55.052Z,16.20
2023-02-01T12:08:33.981Z,17.40
2023-02-01T12:11:32.482Z,13.77
2023-02-01T12:14:24.723Z,13.27
2023-02-01T12:17:12.625Z,14.60
2023-02-01T12:20:04.311Z,12.87
2023-02-01T12:22:50.432Z,13.37
2023-02-01T12:25:58.677Z,12.03
2023-02-01T12:28:55.047Z,18.47
2023-02-01T12:31:37.669Z,10.73
2023-02-01T12:34:27.435Z,15.63
2023-02-01T12:37:08.876Z,8.20
2023-02-01T12:39:53.686Z,10.13
2023-02-01T12:42:35.355Z,11.70
2023-02-01T12:45:17.106Z,17.37
2023-02-01T12:47:50.140Z,13.13
2023-02-01T12:54:42.542Z,8.93
2023-02-01T12:57:38.804Z,12.27
2023-02-01T13:00:23.483Z,13.33
2023-02-01T13:03:06.394Z,13.13
2023-02-01T13:05:47.445Z,15.07
2023-02-01T13:08:20.971Z,11.93
2023-02-01T13:11:10.786Z,10.67
2023-02-01T13:13:45.044Z,10.77
2023-02-01T13:16:55.415Z,11.13
2023-02-01T13:19:31.972Z,12.90
2023-02-01T13:22:08.488Z,8.63
2023-02-01T13:24:41.441Z,10.33
2023-02-01T13:27:18.111Z,9.70
2023-02-01T13:29:53.091Z,12.80
2023-02-01T13:32:54.899Z,12.43
2023-02-01T13:35:37.251Z,7.33
2023-02-01T13:38:45.077Z,11.13
2023-02-01T13:41:29.371Z,9.77
2023-02-01T13:44:12.329Z,13.33
2023-02-01T13:46:44.609Z,11.87
2023-02-01T13:49:23.750Z,14.77
2023-02-01T13:51:54.072Z,13.43
2023-02-01T13:54:37.437Z,11.20
2023-02-01T13:57:06.388Z,8.90
2023-02-01T13:59:42.046Z,12.87
2023-02-01T14:02:39.855Z,8.87
2023-02-01T14:05:12.126Z,9.23
2023-02-01T14:08:07.987Z,7.03
2023-02-01T14:10:48.324Z,9.63
2023-02-01T14:13:24.422Z,14.33
2023-02-01T14:16:13.987Z,10.50
2023-02-01T14:18:46.366Z,10.13
2023-02-01T14:21:47.676Z,12.70
2023-02-01T14:24:25.940Z,7.20
2023-02-01T14:26:57.980Z,6.57
2023-02-01T14:29:33.939Z,9.40
2023-02-01T14:32:20.903Z,10.87
2023-02-01T14:34:47.579Z,8.37
2023-02-01T14:37:19.748Z,11.77
2023-02-01T14:39:46.108Z,12.70
2023-02-01T14:42:24.496Z,12.13
2023-02-01T14:44:58.993Z,10.27
2023-02-01T14:47:29.212Z,11.70
2023-02-01T14:50:16.722Z,10.57
2023-02-01T14:52:48.239Z,10.17
2023-02-01T14:55:34.909Z,11.93
2023-02-01T14:58:05.777Z,10.37
2023-02-01T15:00:32.789Z,10.73
2023-02-01T15:03:24.701Z,13.47
2023-02-01T15:05:59.312Z,11.63
2023-02-01T15:08:32.697Z,12.50
2023-02-01T15:11:02.837Z,10.47
2023-02-01T15:13:30.342Z,13.73
2023-02-01T15:16:15.316Z,13.70
2023-02-01T15:18:42.568Z,13.60
2023-02-01T15:21:27.902Z,11.13
2023-02-01T15:24:15.558Z,14.33
2023-02-01T15:26:42.138Z,14.00
2023-02-01T15:29:14.091Z,15.70
2023-02-01T15:31:44.358Z,21.50
2023-02-01T15:34:11.895Z,20.03
2023-02-01T15:36:38.793Z,21.50
2023-02-01T15:39:24.093Z,18.30
2023-02-01T15:41:55.472Z,13.80
2023-02-01T15:44:43.832Z,10.10
2023-02-01T15:47:25.290Z,8.20
2023-02-01T15:49:55.386Z,16.10
2023-02-01T15:52:38.575Z,10.47
2023-02-01T15:55:10.026Z,12.97
2023-02-01T15:57:41.187Z,14.07
2023-02-01T16:00:22.401Z,12.47
2023-02-01T16:02:54.186Z,14.77
2023-02-01T16:05:41.765Z,10.30
2023-02-01T16:08:23.245Z,11.83
2023-02-01T16:10:53.649Z,10.77
2023-02-01T16:13:21.434Z,14.07
2023-02-01T16:15:48.640Z,11.03
2023-02-01T16:18:17.808Z,11.30
2023-02-01T16:20:46.336Z,13.43
2023-02-01T16:23:12.880Z,15.53
2023-02-01T16:25:41.101Z,11.67
2023-02-01T16:28:08.576Z,13.43
2023-02-01T16:30:35.381Z,11.90
2023-02-01T16:33:08.531Z,13.70
2023-02-01T16:35:37.540Z,10.40
2023-02-01T16:38:09.665Z,13.80
2023-02-01T16:40:36.212Z,12.37
2023-02-01T16:43:03.191Z,14.63
2023-02-01T16:45:31.491Z,14.10
2023-02-01T16:47:58.309Z,13.83
2023-02-01T16:50:26.615Z,10.67
2023-02-01T16:52:54.279Z,7.87
2023-02-01T16:55:22.915Z,13.33
2023-02-01T16:57:50.085Z,9.57
2023-02-01T17:00:25.591Z,12.47
2023-02-01T17:02:54.001Z,24.30
2023-02-01T17:05:20.651Z,29.87
2023-02-01T17:07:47.255Z,19.63
2023-02-01T17:10:34.711Z,9.60
2023-02-01T17:13:02.359Z,11.67
2023-02-01T17:15:34.838Z,10.70
2023-02-01T17:18:02.745Z,11.57
2023-02-01T17:20:32.918Z,10.40
2023-02-01T17:22:59.710Z,12.70
2023-02-01T17:25:28.235Z,9.20
2023-02-01T17:27:54.683Z,12.53
2023-02-01T17:30:21.463Z,9.00
2023-02-01T17:32:48.188Z,10.70
2023-02-01T17:35:27.357Z,6.27
2023-02-01T17:37:55.078Z,14.07
2023-02-01T17:40:21.569Z,9.83
2023-02-01T17:42:48.900Z,10.77
2023-02-01T17:45:36.384Z,12.33
2023-02-01T17:48:04.871Z,8.83
2023-02-01T17:50:34.776Z,10.73
2023-02-01T17:53:03.083Z,15.07
2023-02-01T17:55:29.699Z,21.37
2023-02-01T17:57:56.391Z,12.93
2023-02-01T18:00:22.900Z,12.77
2023-02-01T18:02:49.501Z,11.83
2023-02-01T18:05:22.929Z,12.27
2023-02-01T18:07:49.600Z,12.73
2023-02-01T18:10:16.484Z,12.57
2023-02-01T18:12:43.093Z,15.43
2023-02-01T18:15:22.562Z,13.20
2023-02-01T18:17:49.643Z,13.70
2023-02-01T18:20:18.299Z,17.07
2023-02-01T18:22:48.604Z,12.77
2023-02-01T18:25:24.521Z,17.20
2023-02-01T18:27:53.047Z,16.10
2023-02-01T18:30:22.075Z,13.13
2023-02-01T18:32:49.104Z,13.77
2023-02-01T18:35:27.479Z,18.43
2023-02-01T18:37:56.247Z,14.13
2023-02-01T18:40:26.634Z,13.87
2023-02-01T18:42:53.143Z,15.20
2023-02-01T18:45:25.192Z,13.23
2023-02-01T18:47:52.067Z,13.97
2023-02-01T18:50:19.375Z,11.20
2023-02-01T18:52:46.543Z,11.43
2023-02-01T18:55:13.742Z,14.57
2023-02-01T18:57:41.492Z,12.23
2023-02-01T19:00:10.324Z,17.27
2023-02-01T19:02:39.032Z,19.57
2023-02-01T19:05:08.510Z,24.30
2023-02-01T19:07:38.941Z,16.80
2023-02-01T19:10:07.402Z,24.77
2023-02-01T19:12:34.077Z,12.90
2023-02-01T19:15:00.710Z,15.40
2023-02-01T19:17:28.935Z,13.57
2023-02-01T19:19:58.743Z,15.83
2023-02-01T19:22:26.655Z,16.00
2023-02-01T19:24:54.640Z,14.77
2023-02-01T19:27:21.502Z,13.40
2023-02-01T19:29:48.131Z,11.80
2023-02-01T19:32:14.997Z,12.60
2023-02-01T19:34:41.552Z,13.53
2023-02-01T19:37:09.130Z,11.53
2023-02-01T19:39:37.747Z,13.60
2023-02-01T19:42:05.476Z,14.33
2023-02-01T19:44:33.704Z,17.03
2023-02-01T19:47:00.749Z,14.80
2023-02-01T19:49:27.352Z,13.60
2023-02-01T19:51:53.796Z,13.40
2023-02-01T19:54:20.777Z,13.53
2023-02-01T19:56:50.660Z,14.27
2023-02-01T19:59:18.613Z,13.30
2023-02-01T20:01:46.424Z,17.63
2023-02-01T20:04:14.627Z,15.10
2023-02-01T20:06:48.685Z,8.67
2023-02-01T20:09:20.167Z,16.60
2023-02-01T20:11:47.317Z,12.27
2023-02-01T20:14:14.697Z,15.73
2023-02-01T20:16:42.428Z,11.40
2023-02-01T20:19:10.746Z,16.17
2023-02-01T20:21:38.697Z,9.40
2023-02-01T20:24:05.906Z,17.43
2023-02-01T20:26:34.473Z,17.43
2023-02-01T20:29:02.515Z,11.33
2023-02-01T20:31:29.946Z,8.57
2023-02-01T20:33:58.159Z,11.07
2023-02-01T20:36:26.566Z,12.97
2023-02-01T20:38:54.804Z,13.63
2023-02-01T20:41:22.277Z,16.57
2023-02-01T20:43:49.067Z,10.83
2023-02-01T20:46:16.877Z,15.13
2023-02-01T20:48:44.867Z,13.40
2023-02-01T20:51:12.853Z,13.40
2023-02-01T20:53:40.185Z,14.50
2023-02-01T20:56:07.710Z,11.03
2023-02-01T20:58:34.405Z,10.90
2023-02-01T21:01:00.852Z,11.87
2023-02-01T21:03:27.629Z,13.40
2023-02-01T21:05:57.393Z,13.23
2023-02-01T21:08:25.331Z,10.53
2023-02-01T21:11:01.133Z,14.70
2023-02-01T21:13:31.806Z,12.13
2023-02-01T21:15:58.606Z,12.30
2023-02-01T21:18:25.118Z,11.60
2023-02-01T21:20:52.565Z,14.17
2023-02-01T21:23:19.469Z,13.00
2023-02-01T21:25:46.589Z,13.33
2023-02-01T21:28:13.592Z,15.23
2023-02-01T21:30:40.516Z,8.20
2023-02-01T21:33:07.818Z,10.10
2023-02-01T21:35:34.283Z,14.20
2023-02-01T21:38:00.796Z,13.67
2023-02-01T21:40:27.304Z,11.20
2023-02-01T21:42:54.451Z,13.53
2023-02-01T21:45:20.993Z,11.27
2023-02-01T21:47:48.948Z,14.43
2023-02-01T21:50:19.184Z,13.23
2023-02-01T21:52:46.495Z,15.10
2023-02-01T21:55:14.015Z,14.83
2023-02-01T21:57:41.069Z,13.37
2023-02-01T22:00:08.663Z,10.97
2023-02-01T22:02:35.795Z,13.17
2023-02-01T22:05:05.262Z,12.30
2023-02-01T22:07:33.732Z,13.30
2023-02-01T22:10:01.058Z,13.60
2023-02-01T22:12:27.672Z,12.10
2023-02-01T22:14:54.389Z,10.87
2023-02-01T22:17:20.867Z,13.87
2023-02-01T22:19:47.366Z,9.67
2023-02-01T22:22:13.854Z,13.50
2023-02-01T22:24:40.263Z,13.50
2023-02-01T22:27:14.442Z,11.27
2023-02-01T22:29:42.455Z,12.17
2023-02-01T22:32:09.333Z,13.57
2023-02-01T22:34:35.775Z,11.50
2023-02-01T22:37:02.976Z,9.90
2023-02-01T22:39:29.575Z,11.13
2023-02-01T22:41:55.996Z,10.37
2023-02-01T22:44:23.653Z,12.80
2023-02-01T22:46:50.396Z,11.03
2023-02-01T22:49:17.403Z,15.10
2023-02-01T22:51:44.021Z,12.00
2023-02-01T22:54:17.579Z,11.90
2023-02-01T22:56:44.074Z,8.87
2023-02-01T22:59:13.668Z,16.00
2023-02-01T23:01:41.025Z,9.80
2023-02-01T23:04:11.369Z,12.60
2023-02-01T23:06:38.734Z,16.10
2023-02-01T23:09:11.331Z,15.27
2023-02-01T23:11:38.791Z,18.27
2023-02-01T23:14:06.093Z,12.77
2023-02-01T23:16:33.157Z,13.83
2023-02-01T23:18:59.884Z,14.97
2023-02-01T23:21:26.866Z,12.07
2023-02-01T23:23:56.585Z,11.47
2023-02-01T23:26:24.814Z,11.47
2023-02-01T23:28:55.068Z,11.67
2023-02-01T23:31:24.044Z,14.40
2023-02-01T23:33:54.908Z,13.60
2023-02-01T23:36:23.547Z,13.43
2023-02-01T23:38:50.872Z,15.03
2023-02-01T23:41:19.159Z,14.83
2023-02-01T23:43:58.588Z,13.50
2023-02-01T23:46:37.660Z,15.47
2023-02-01T23:49:06.234Z,12.40
2023-02-01T23:51:33.436Z,15.97
2023-02-01T23:53:59.909Z,15.27
2023-02-01T23:56:33.438Z,10.23
2023-02-01T23:59:05.048Z,17.03
